SBMQSBMA

Guest
Details From SBMQ - MACAPA
To SBMA - Maraba
Flight Number -
Tags generated
Created
Modified
Stats Distance 356 nm / 659 km
Max Altitude 35,000 ft / 10,668 m
Waypoints 6
Social Downloads 0
Likes 0
Share VATSIM

Download

Looking for another format? Having issues loading an existing format? Contact us
Advertisement - Login to hide

Notes

Basic altitude profile: - Ascent Rate: 500ft/min - Ascent Speed: 140kts - Cruise Altitude: 8000ft - Cruise Speed: 160kts - Descent Rate: 500ft/min - Descent Speed: 120kts Options: - Use NATs: yes - Use PACOTS: yes - Use low airways: yes - Use high airways: no

Route

SBMQ APURU PACAI 300S05000W TUI SBMA

ID Type Via Altitude Latitude Longitude Leg Dist Tot Dist Heading (true) Name
O SBMQ APT - 0 ft / 0 m 0.05064˚ -51.07216˚ - 0 nm - MACAPA
APURU FIX - 23,800 ft / 7,254 m -1.09250˚ -50.87100˚ 69 nm 69 nm 170° / 170° -
PACAI FIX - 35,000 ft / 10,668 m -2.46717˚ -50.66267˚ 83 nm 153 nm 171° / 171° -
300S05000W LATLON - 31,400 ft / 9,571 m -3.00000˚ -50.00000˚ 51 nm 204 nm 129° / 129° -
TUI VOR - 21,500 ft / 6,553 m -3.80134˚ -49.72133˚ 50 nm 255 nm 161° / 161° TUCURUI VOR-DME
O SBMA APT - 0 ft / 0 m -5.36859˚ -49.13802˚ 100 nm 355 nm 160° / 160° Maraba

Altitude Profile

Advertisement - Login to hide

Weather


0- 5 10 15 20 25 30 35+ Temperature / ° C

Clouds and Precipitation
Forecast for 2017-12-16 12:00 UTC. Updated 30 minutes ago

Ground ~20,000 ft ~40,000 ft Winds

SBMQ

Details ICAO SBMQ (MCP)
Name MACAPA
Region Brazil
Timezone America/Belem (UTC-3.0)
Stats Elevation 56 ft / 17 m (AMSL)
Location 0.050639° -51.072162°
Runways 1
Magnetic Variation 19.353° W

METAR

SBMQ 161100Z 33004KT 9999 FEW015 BKN100 26/26 Q1011

Decode

TAF

Not found

Departure Runways

ID Width Length Bearing (true) Bearing (mag) Surface Threshold Offset Overrun Length
08 148 ft / 45 m 6,917 ft / 2,108 m 57.22° 76.57° Asphalt 0 ft / 0 m 219 ft / 67 m
26 148 ft / 45 m 6,917 ft / 2,108 m 237.22° 256.57° Asphalt 0 ft / 0 m 219 ft / 67 m

SBMA

Details ICAO SBMA (MAB)
Name Maraba
Region Brazil
Timezone America/Belem (UTC-3.0)
Stats Elevation 357 ft / 109 m (AMSL)
Location -5.368588° -49.138025°
Runways 1
Magnetic Variation 20.553° W

METAR

SBMA 161100Z 36006KT 5000 -RA SCT008 OVC070 23/23 Q1013 RETS

Decode

TAF

Not found

Destination Runways

ID Width Length Bearing (true) Bearing (mag) Surface Threshold Offset Overrun Length
07 148 ft / 45 m 6,582 ft / 2,006 m 50.35° 70.90° Asphalt 0 ft / 0 m 195 ft / 59 m
25 148 ft / 45 m 6,582 ft / 2,006 m 230.35° 250.90° Asphalt 0 ft / 0 m 195 ft / 59 m

Popular Alternatives